マドリード/バラハス の空港の天気 - METARとTAF

マドリード・バラハス国際空港 ( LEMD / MAD ) - スペイン マドリード
飛行場実況気象(Metar)
観測時間11/18 12:30 CET (11/18 11:30 UTC)
風向・風速南南西 2m/s
視程10km以上
天気現象
なし
気温17℃
湿度36%
気圧1021hPa
METARLEMD 181130Z 20003KT CAVOK 17/02 Q1021 NOSIG
過去の天気等 Google飛行場航空写真 Wunderground天気予報

過去48時間のMETAR

飛行場予報(TAF)
発表時間: 11/18 12:00 CET (11/18 11:00 UTC)
予報対象時間: 18日13時 CET ~ 19日19時 CET
風向・風速不定 3m/s
視程10km以上
なし
TAF LEMD 181100Z 1812/1918 VRB05KT CAVOK TX20/1814Z TN00/1907Z